sensor_id;sensor_type;location;lat;lon;timestamp;pressure;altitude;pressure_sealevel;temperature;humidity
13050;BME280;6591;51.446;5.404;2023-03-01T00:01:40;102795.25;;;6.17;36.53
13050;BME280;6591;51.446;5.404;2023-03-01T00:04:07;102795.25;;;6.17;36.76
13050;BME280;6591;51.446;5.404;2023-03-01T00:06:34;102793.44;;;6.13;36.44
13050;BME280;6591;51.446;5.404;2023-03-01T00:09:01;102791.72;;;6.12;36.87
13050;BME280;6591;51.446;5.404;2023-03-01T00:11:31;102793.44;;;6.10;37.26
13050;BME280;6591;51.446;5.404;2023-03-01T00:14:01;102790.78;;;6.08;36.96
13050;BME280;6591;51.446;5.404;2023-03-01T00:16:32;102793.44;;;6.07;37.19
13050;BME280;6591;51.446;5.404;2023-03-01T00:19:02;102796.94;;;6.07;37.12
13050;BME280;6591;51.446;5.404;2023-03-01T00:21:30;102791.69;;;6.06;37.14
13050;BME280;6591;51.446;5.404;2023-03-01T00:23:58;102789.03;;;6.06;37.43
13050;BME280;6591;51.446;5.404;2023-03-01T00:26:28;102789.94;;;6.06;37.12
13050;BME280;6591;51.446;5.404;2023-03-01T00:28:58;102796.94;;;6.07;36.92
13050;BME280;6591;51.446;5.404;2023-03-01T00:31:29;102788.13;;;6.04;37.17
13050;BME280;6591;51.446;5.404;2023-03-01T00:34:04;102783.75;;;6.01;36.84
13050;BME280;6591;51.446;5.404;2023-03-01T00:36:35;102782.00;;;6.02;37.55
13050;BME280;6591;51.446;5.404;2023-03-01T00:39:10;102780.22;;;6.02;37.48
13050;BME280;6591;51.446;5.404;2023-03-01T00:41:37;102785.50;;;6.04;37.65
13050;BME280;6591;51.446;5.404;2023-03-01T00:44:04;102787.25;;;6.03;37.10
13050;BME280;6591;51.446;5.404;2023-03-01T00:46:32;102789.03;;;6.04;37.75
13050;BME280;6591;51.446;5.404;2023-03-01T00:49:01;102786.41;;;6.06;37.70
13050;BME280;6591;51.446;5.404;2023-03-01T00:51:29;102778.50;;;6.06;37.58
13050;BME280;6591;51.446;5.404;2023-03-01T00:54:00;102783.75;;;6.04;37.24
13050;BME280;6591;51.446;5.404;2023-03-01T00:56:28;102782.88;;;6.04;37.62
13050;BME280;6591;51.446;5.404;2023-03-01T00:58:56;102775.81;;;6.03;37.53
13050;BME280;6591;51.446;5.404;2023-03-01T01:01:27;102772.28;;;5.97;37.67
13050;BME280;6591;51.446;5.404;2023-03-01T01:04:04;102767.91;;;5.95;37.03
13050;BME280;6591;51.446;5.404;2023-03-01T01:06:39;102766.97;;;5.91;37.22
13050;BME280;6591;51.446;5.404;2023-03-01T01:09:07;102761.72;;;5.88;37.61
13050;BME280;6591;51.446;5.404;2023-03-01T01:11:35;102764.31;;;5.85;37.41
13050;BME280;6591;51.446;5.404;2023-03-01T01:14:03;102759.88;;;5.81;37.34
13050;BME280;6591;51.446;5.404;2023-03-01T01:16:30;102753.72;;;5.78;37.78
13050;BME280;6591;51.446;5.404;2023-03-01T01:18:58;102750.19;;;5.74;37.49
13050;BME280;6591;51.446;5.404;2023-03-01T01:21:26;102751.91;;;5.72;37.66
13050;BME280;6591;51.446;5.404;2023-03-01T01:23:54;102753.66;;;5.67;37.91
13050;BME280;6591;51.446;5.404;2023-03-01T01:26:28;102752.78;;;5.65;38.03
13050;BME280;6591;51.446;5.404;2023-03-01T01:28:57;102740.44;;;5.61;37.48
13050;BME280;6591;51.446;5.404;2023-03-01T01:31:25;102742.19;;;5.58;37.69
13050;BME280;6591;51.446;5.404;2023-03-01T01:33:53;102731.66;;;5.54;37.61
13050;BME280;6591;51.446;5.404;2023-03-01T01:36:21;102718.44;;;5.51;37.75
13050;BME280;6591;51.446;5.404;2023-03-01T01:38:49;102720.19;;;5.48;37.94
13050;BME280;6591;51.446;5.404;2023-03-01T01:41:17;102712.25;;;5.45;37.56
13050;BME280;6591;51.446;5.404;2023-03-01T01:44:13;102721.88;;;5.38;37.90
13050;BME280;6591;51.446;5.404;2023-03-01T01:49:22;102718.31;;;5.35;38.08
13050;BME280;6591;51.446;5.404;2023-03-01T01:52:02;102716.56;;;5.32;38.46
13050;BME280;6591;51.446;5.404;2023-03-01T01:54:51;102716.53;;;5.28;37.74
13050;BME280;6591;51.446;5.404;2023-03-01T01:57:28;102717.41;;;5.27;38.26
13050;BME280;6591;51.446;5.404;2023-03-01T02:00:03;102710.38;;;5.26;38.35
13050;BME280;6591;51.446;5.404;2023-03-01T02:02:40;102709.50;;;5.25;38.61
13050;BME280;6591;51.446;5.404;2023-03-01T02:05:22;102710.38;;;5.23;38.87
13050;BME280;6591;51.446;5.404;2023-03-01T02:07:52;102708.59;;;5.25;38.57
13050;BME280;6591;51.446;5.404;2023-03-01T02:10:23;102705.09;;;5.23;38.26
13050;BME280;6591;51.446;5.404;2023-03-01T02:12:52;102696.31;;;5.24;38.83
13050;BME280;6591;51.446;5.404;2023-03-01T02:15:20;102694.56;;;5.23;38.59
13050;BME280;6591;51.446;5.404;2023-03-01T02:17:47;102692.81;;;5.22;38.44
13050;BME280;6591;51.446;5.404;2023-03-01T02:20:34;102687.50;;;5.16;38.75
13050;BME280;6591;51.446;5.404;2023-03-01T02:23:04;102683.09;;;5.16;38.44
13050;BME280;6591;51.446;5.404;2023-03-01T02:26:06;102681.28;;;5.09;38.96
13050;BME280;6591;51.446;5.404;2023-03-01T02:28:40;102680.41;;;5.08;38.49
13050;BME280;6591;51.446;5.404;2023-03-01T02:31:15;102681.31;;;5.07;38.45
13050;BME280;6591;51.446;5.404;2023-03-01T02:34:06;102672.50;;;5.04;38.95
13050;BME280;6591;51.446;5.404;2023-03-01T02:36:47;102673.34;;;5.03;38.86
13050;BME280;6591;51.446;5.404;2023-03-01T02:39:22;102685.66;;;5.04;38.64
13050;BME280;6591;51.446;5.404;2023-03-01T02:41:54;102692.66;;;5.03;38.85
13050;BME280;6591;51.446;5.404;2023-03-01T02:44:23;102685.63;;;5.02;39.21
13050;BME280;6591;51.446;5.404;2023-03-01T02:46:53;102682.13;;;5.03;39.40
13050;BME280;6591;51.446;5.404;2023-03-01T02:49:31;102694.41;;;5.01;39.62
13050;BME280;6591;51.446;5.404;2023-03-01T02:55:17;102691.78;;;5.01;39.46
13050;BME280;6591;51.446;5.404;2023-03-01T02:57:47;102684.78;;;5.02;39.51
13050;BME280;6591;51.446;5.404;2023-03-01T03:00:23;102688.28;;;5.04;39.54
13050;BME280;6591;51.446;5.404;2023-03-01T03:02:54;102684.78;;;5.05;39.58
13050;BME280;6591;51.446;5.404;2023-03-01T03:05:26;102685.69;;;5.07;39.66
13050;BME280;6591;51.446;5.404;2023-03-01T03:08:00;102683.03;;;5.08;39.50
13050;BME280;6591;51.446;5.404;2023-03-01T03:10:37;102679.53;;;5.09;39.96
13050;BME280;6591;51.446;5.404;2023-03-01T03:13:12;102683.94;;;5.10;39.63
13050;BME280;6591;51.446;5.404;2023-03-01T03:15:42;102681.31;;;5.10;39.89
13050;BME280;6591;51.446;5.404;2023-03-01T03:18:15;102675.16;;;5.10;39.80
13050;BME280;6591;51.446;5.404;2023-03-01T03:20:43;102684.84;;;5.11;39.37
13050;BME280;6591;51.446;5.404;2023-03-01T03:23:13;102685.72;;;5.11;39.93
13050;BME280;6591;51.446;5.404;2023-03-01T03:25:40;102680.44;;;5.11;39.65
13050;BME280;6591;51.446;5.404;2023-03-01T03:28:07;102676.94;;;5.13;39.97
13050;BME280;6591;51.446;5.404;2023-03-01T03:30:40;102679.59;;;5.13;40.18
13050;BME280;6591;51.446;5.404;2023-03-01T03:33:10;102674.31;;;5.14;40.31
13050;BME280;6591;51.446;5.404;2023-03-01T03:35:47;102676.94;;;5.13;40.31
13050;BME280;6591;51.446;5.404;2023-03-01T03:38:18;102676.06;;;5.13;39.77
13050;BME280;6591;51.446;5.404;2023-03-01T03:40:51;102683.94;;;5.13;40.03
13050;BME280;6591;51.446;5.404;2023-03-01T03:43:22;102676.06;;;5.15;39.92
13050;BME280;6591;51.446;5.404;2023-03-01T03:45:50;102680.47;;;5.16;39.82
13050;BME280;6591;51.446;5.404;2023-03-01T03:48:19;102672.56;;;5.15;40.34
13050;BME280;6591;51.446;5.404;2023-03-01T03:50:55;102669.91;;;5.11;40.10
13050;BME280;6591;51.446;5.404;2023-03-01T03:53:27;102671.66;;;5.11;40.13
13050;BME280;6591;51.446;5.404;2023-03-01T03:55:54;102678.69;;;5.10;39.91
13050;BME280;6591;51.446;5.404;2023-03-01T03:58:23;102673.41;;;5.09;40.40
13050;BME280;6591;51.446;5.404;2023-03-01T04:00:56;102670.75;;;5.06;39.90
13050;BME280;6591;51.446;5.404;2023-03-01T04:03:26;102681.31;;;5.07;40.79
13050;BME280;6591;51.446;5.404;2023-03-01T04:05:53;102668.16;;;5.07;39.88
13050;BME280;6591;51.446;5.404;2023-03-01T04:08:23;102670.75;;;5.06;40.08
13050;BME280;6591;51.446;5.404;2023-03-01T04:10:53;102662.84;;;5.04;40.20
13050;BME280;6591;51.446;5.404;2023-03-01T04:13:23;102661.09;;;5.02;40.86
13050;BME280;6591;51.446;5.404;2023-03-01T04:15:53;102654.94;;;5.01;40.16
13050;BME280;6591;51.446;5.404;2023-03-01T04:18:23;102643.50;;;4.99;40.37
13050;BME280;6591;51.446;5.404;2023-03-01T04:20:53;102647.00;;;4.98;40.29
13050;BME280;6591;51.446;5.404;2023-03-01T04:23:22;102650.50;;;4.96;40.16
13050;BME280;6591;51.446;5.404;2023-03-01T04:25:54;102646.09;;;4.93;40.48
13050;BME280;6591;51.446;5.404;2023-03-01T04:30:56;102646.94;;;4.86;40.66
13050;BME280;6591;51.446;5.404;2023-03-01T04:33:25;102645.16;;;4.85;40.31
13050;BME280;6591;51.446;5.404;2023-03-01T04:35:52;102644.25;;;4.83;40.28
13050;BME280;6591;51.446;5.404;2023-03-01T04:38:20;102645.13;;;4.82;40.49
13050;BME280;6591;51.446;5.404;2023-03-01T04:40:48;102643.41;;;4.81;40.46
13050;BME280;6591;51.446;5.404;2023-03-01T04:43:15;102639.00;;;4.80;40.11
13050;BME280;6591;51.446;5.404;2023-03-01T04:45:42;102637.22;;;4.79;40.98
13050;BME280;6591;51.446;5.404;2023-03-01T04:48:10;102632.84;;;4.78;40.40
13050;BME280;6591;51.446;5.404;2023-03-01T04:50:36;102626.69;;;4.78;40.67
13050;BME280;6591;51.446;5.404;2023-03-01T04:53:04;102624.91;;;4.77;41.06
13050;BME280;6591;51.446;5.404;2023-03-01T04:55:31;102617.91;;;4.77;41.07
13050;BME280;6591;51.446;5.404;2023-03-01T04:57:59;102615.28;;;4.77;40.96
13050;BME280;6591;51.446;5.404;2023-03-01T05:00:26;102617.03;;;4.77;41.29
13050;BME280;6591;51.446;5.404;2023-03-01T05:02:58;102621.44;;;4.76;40.92
13050;BME280;6591;51.446;5.404;2023-03-01T05:05:38;102619.66;;;4.75;41.20
13050;BME280;6591;51.446;5.404;2023-03-01T05:08:08;102625.81;;;4.76;40.89
13050;BME280;6591;51.446;5.404;2023-03-01T05:10:36;102624.94;;;4.75;41.01
13050;BME280;6591;51.446;5.404;2023-03-01T05:13:03;102628.41;;;4.74;41.16
13050;BME280;6591;51.446;5.404;2023-03-01T05:15:31;102634.53;;;4.73;41.13
13050;BME280;6591;51.446;5.404;2023-03-01T05:18:00;102630.16;;;4.72;41.13
13050;BME280;6591;51.446;5.404;2023-03-01T05:20:29;102619.63;;;4.71;41.08
13050;BME280;6591;51.446;5.404;2023-03-01T05:22:59;102617.88;;;4.69;41.05
13050;BME280;6591;51.446;5.404;2023-03-01T05:25:27;102612.59;;;4.69;41.00
13050;BME280;6591;51.446;5.404;2023-03-01T05:27:54;102609.97;;;4.69;41.19
13050;BME280;6591;51.446;5.404;2023-03-01T05:30:21;102602.94;;;4.68;41.28
13050;BME280;6591;51.446;5.404;2023-03-01T05:32:50;102603.84;;;4.69;41.26
13050;BME280;6591;51.446;5.404;2023-03-01T05:35:24;102598.56;;;4.69;41.60
13050;BME280;6591;51.446;5.404;2023-03-01T05:37:51;102591.56;;;4.71;41.09
13050;BME280;6591;51.446;5.404;2023-03-01T05:40:22;102587.19;;;4.70;40.98
13050;BME280;6591;51.446;5.404;2023-03-01T05:42:56;102582.78;;;4.67;41.05
13050;BME280;6591;51.446;5.404;2023-03-01T05:45:26;102587.16;;;4.67;41.53
13050;BME280;6591;51.446;5.404;2023-03-01T05:47:54;102587.16;;;4.65;40.76
13050;BME280;6591;51.446;5.404;2023-03-01T05:50:28;102585.34;;;4.61;40.93
13050;BME280;6591;51.446;5.404;2023-03-01T05:53:03;102587.97;;;4.61;41.27
13050;BME280;6591;51.446;5.404;2023-03-01T05:55:33;102585.38;;;4.60;40.89
13050;BME280;6591;51.446;5.404;2023-03-01T05:58:08;102587.09;;;4.58;40.96
13050;BME280;6591;51.446;5.404;2023-03-01T06:00:36;102589.72;;;4.55;40.73
13050;BME280;6591;51.446;5.404;2023-03-01T06:03:04;102592.28;;;4.52;40.78
13050;BME280;6591;51.446;5.404;2023-03-01T06:05:31;102587.03;;;4.49;40.99
13050;BME280;6591;51.446;5.404;2023-03-01T06:08:02;102586.09;;;4.45;40.75
13050;BME280;6591;51.446;5.404;2023-03-01T06:10:30;102575.56;;;4.42;40.58
13050;BME280;6591;51.446;5.404;2023-03-01T06:12:58;102586.94;;;4.40;41.21
13050;BME280;6591;51.446;5.404;2023-03-01T06:15:26;102582.56;;;4.40;41.31
13050;BME280;6591;51.446;5.404;2023-03-01T06:17:55;102586.06;;;4.39;41.11
13050;BME280;6591;51.446;5.404;2023-03-01T06:20:28;102586.06;;;4.39;41.50
13050;BME280;6591;51.446;5.404;2023-03-01T06:22:56;102586.06;;;4.39;41.11
13050;BME280;6591;51.446;5.404;2023-03-01T06:25:26;102584.31;;;4.38;41.24
13050;BME280;6591;51.446;5.404;2023-03-01T06:27:53;102579.94;;;4.39;41.29
13050;BME280;6591;51.446;5.404;2023-03-01T06:30:23;102586.06;;;4.38;41.13
13050;BME280;6591;51.446;5.404;2023-03-01T06:32:51;102586.91;;;4.37;41.25
13050;BME280;6591;51.446;5.404;2023-03-01T06:35:19;102593.03;;;4.36;41.55
13050;BME280;6591;51.446;5.404;2023-03-01T06:37:47;102599.19;;;4.36;40.97
13050;BME280;6591;51.446;5.404;2023-03-01T06:40:15;102595.69;;;4.37;42.18
13050;BME280;6591;51.446;5.404;2023-03-01T06:42:48;102593.94;;;4.38;42.10
13050;BME280;6591;51.446;5.404;2023-03-01T06:45:20;102589.56;;;4.40;41.37
13050;BME280;6591;51.446;5.404;2023-03-01T06:47:48;102589.59;;;4.43;41.67
13050;BME280;6591;51.446;5.404;2023-03-01T06:50:17;102588.75;;;4.44;41.73
13050;BME280;6591;51.446;5.404;2023-03-01T06:52:46;102592.25;;;4.47;41.43
13050;BME280;6591;51.446;5.404;2023-03-01T06:55:12;102599.31;;;4.50;41.72
13050;BME280;6591;51.446;5.404;2023-03-01T06:57:40;102592.31;;;4.53;41.64
13050;BME280;6591;51.446;5.404;2023-03-01T07:00:07;102587.09;;;4.55;41.98
13050;BME280;6591;51.446;5.404;2023-03-01T07:02:36;102587.09;;;4.58;41.94
13050;BME280;6591;51.446;5.404;2023-03-01T07:05:03;102581.88;;;4.64;41.98
13050;BME280;6591;51.446;5.404;2023-03-01T07:07:30;102579.25;;;4.67;41.76
13050;BME280;6591;51.446;5.404;2023-03-01T07:09:57;102581.94;;;4.70;41.75
13050;BME280;6591;51.446;5.404;2023-03-01T07:12:25;102577.56;;;4.75;41.88
13050;BME280;6591;51.446;5.404;2023-03-01T07:14:52;102580.22;;;4.80;42.27
13050;BME280;6591;51.446;5.404;2023-03-01T07:17:19;102584.66;;;4.85;42.31
13050;BME280;6591;51.446;5.404;2023-03-01T07:19:46;102592.59;;;4.91;42.17
13050;BME280;6591;51.446;5.404;2023-03-01T07:22:14;102596.13;;;4.96;42.10
13050;BME280;6591;51.446;5.404;2023-03-01T07:24:41;102601.41;;;4.99;41.68
13050;BME280;6591;51.446;5.404;2023-03-01T07:27:09;102605.81;;;5.05;41.93
13050;BME280;6591;51.446;5.404;2023-03-01T07:29:36;102600.56;;;5.08;42.12
13050;BME280;6591;51.446;5.404;2023-03-01T07:32:06;102601.47;;;5.11;41.88
13050;BME280;6591;51.446;5.404;2023-03-01T07:34:37;102603.25;;;5.16;41.68
13050;BME280;6591;51.446;5.404;2023-03-01T07:37:04;102602.38;;;5.20;41.80
13050;BME280;6591;51.446;5.404;2023-03-01T07:39:31;102604.19;;;5.27;41.68
13050;BME280;6591;51.446;5.404;2023-03-01T07:41:58;102597.19;;;5.32;42.03
13050;BME280;6591;51.446;5.404;2023-03-01T07:44:25;102601.59;;;5.36;41.51
13050;BME280;6591;51.446;5.404;2023-03-01T07:46:52;102599.00;;;5.42;42.18
13050;BME280;6591;51.446;5.404;2023-03-01T07:49:22;102601.66;;;5.51;42.55
13050;BME280;6591;51.446;5.404;2023-03-01T07:51:49;102595.53;;;5.61;41.92
13050;BME280;6591;51.446;5.404;2023-03-01T07:54:17;102596.47;;;5.72;41.84
13050;BME280;6591;51.446;5.404;2023-03-01T07:56:45;102600.03;;;5.85;41.98
13050;BME280;6591;51.446;5.404;2023-03-01T07:59:12;102593.94;;;6.00;42.79
13050;BME280;6591;51.446;5.404;2023-03-01T08:01:40;102600.13;;;6.17;42.00
13050;BME280;6591;51.446;5.404;2023-03-01T08:04:08;102599.25;;;6.31;41.98
13050;BME280;6591;51.446;5.404;2023-03-01T08:06:36;102595.75;;;6.48;42.10
13050;BME280;6591;51.446;5.404;2023-03-01T08:09:03;102582.53;;;6.64;42.19
13050;BME280;6591;51.446;5.404;2023-03-01T08:11:30;102591.28;;;6.81;41.84
13050;BME280;6591;51.446;5.404;2023-03-01T08:13:58;102587.75;;;6.98;41.76
13050;BME280;6591;51.446;5.404;2023-03-01T08:16:25;102588.59;;;7.15;41.89
13050;BME280;6591;51.446;5.404;2023-03-01T08:18:52;102583.25;;;7.32;41.65
13050;BME280;6591;51.446;5.404;2023-03-01T08:21:19;102592.84;;;7.51;41.84
13050;BME280;6591;51.446;5.404;2023-03-01T08:23:46;102583.97;;;7.69;41.38
13050;BME280;6591;51.446;5.404;2023-03-01T08:26:21;102579.44;;;7.86;41.02
13050;BME280;6591;51.446;5.404;2023-03-01T08:28:49;102573.16;;;8.02;41.41
13050;BME280;6591;51.446;5.404;2023-03-01T08:31:35;102579.22;;;8.19;40.67
13050;BME280;6591;51.446;5.404;2023-03-01T08:34:09;102576.44;;;8.37;40.97
13050;BME280;6591;51.446;5.404;2023-03-01T08:36:42;102579.84;;;8.56;40.46
13050;BME280;6591;51.446;5.404;2023-03-01T08:39:16;102575.22;;;8.76;40.56
13050;BME280;6591;51.446;5.404;2023-03-01T08:41:44;102561.81;;;8.95;40.44
13050;BME280;6591;51.446;5.404;2023-03-01T08:44:15;102564.28;;;9.10;40.24
13050;BME280;6591;51.446;5.404;2023-03-01T08:46:44;102564.09;;;9.25;39.84
13050;BME280;6591;51.446;5.404;2023-03-01T08:49:18;102556.84;;;9.39;39.93
13050;BME280;6591;51.446;5.404;2023-03-01T08:51:46;102553.13;;;9.54;39.56
13050;BME280;6591;51.446;5.404;2023-03-01T08:54:18;102552.91;;;9.69;39.53
13050;BME280;6591;51.446;5.404;2023-03-01T08:56:46;102551.84;;;9.84;39.44
13050;BME280;6591;51.446;5.404;2023-03-01T08:59:17;102552.50;;;9.96;39.35
13050;BME280;6591;51.446;5.404;2023-03-01T09:01:45;102547.00;;;10.10;39.11
13050;BME280;6591;51.446;5.404;2023-03-01T09:04:15;102546.81;;;10.22;39.32
13050;BME280;6591;51.446;5.404;2023-03-01T09:06:43;102536.03;;;10.33;38.93
13050;BME280;6591;51.446;5.404;2023-03-01T09:09:17;102547.41;;;10.41;38.66
13050;BME280;6591;51.446;5.404;2023-03-01T09:11:45;102540.13;;;10.52;38.66
13050;BME280;6591;51.446;5.404;2023-03-01T09:14:14;102531.09;;;10.62;38.72
13050;BME280;6591;51.446;5.404;2023-03-01T09:16:42;102528.25;;;10.73;38.21
13050;BME280;6591;51.446;5.404;2023-03-01T09:19:09;102527.19;;;10.81;38.53
13050;BME280;6591;51.446;5.404;2023-03-01T09:21:37;102523.50;;;10.88;38.02
13050;BME280;6591;51.446;5.404;2023-03-01T09:24:14;102525.19;;;10.92;38.05
13050;BME280;6591;51.446;5.404;2023-03-01T09:26:43;102520.59;;;11.00;37.72
13050;BME280;6591;51.446;5.404;2023-03-01T09:29:16;102519.50;;;11.11;37.71
13050;BME280;6591;51.446;5.404;2023-03-01T09:31:43;102521.13;;;11.18;37.86
13050;BME280;6591;51.446;5.404;2023-03-01T09:34:10;102507.81;;;11.19;37.32
13050;BME280;6591;51.446;5.404;2023-03-01T09:36:37;102510.41;;;11.22;36.93
13050;BME280;6591;51.446;5.404;2023-03-01T09:39:05;102520.94;;;11.27;37.14
13050;BME280;6591;51.446;5.404;2023-03-01T09:42:02;102517.38;;;11.28;37.11
13050;BME280;6591;51.446;5.404;2023-03-01T09:47:20;102504.72;;;11.40;36.41
13050;BME280;6591;51.446;5.404;2023-03-01T09:50:17;102494.00;;;11.42;36.51
13050;BME280;6591;51.446;5.404;2023-03-01T09:53:09;102493.00;;;11.47;36.76
13050;BME280;6591;51.446;5.404;2023-03-01T09:56:05;102494.66;;;11.53;36.23
13050;BME280;6591;51.446;5.404;2023-03-01T09:58:51;102479.47;;;11.58;35.86
13050;BME280;6591;51.446;5.404;2023-03-01T10:01:58;102481.06;;;11.65;36.31
13050;BME280;6591;51.446;5.404;2023-03-01T10:04:45;102474.56;;;11.78;36.34
13050;BME280;6591;51.446;5.404;2023-03-01T10:10:43;102459.06;;;11.96;35.73
13050;BME280;6591;51.446;5.404;2023-03-01T10:13:50;102458.03;;;12.03;35.20
13050;BME280;6591;51.446;5.404;2023-03-01T10:16:51;102455.25;;;12.06;34.68
13050;BME280;6591;51.446;5.404;2023-03-01T10:19:29;102455.22;;;12.09;34.66
13050;BME280;6591;51.446;5.404;2023-03-01T10:22:22;102448.94;;;12.10;34.92
13050;BME280;6591;51.446;5.404;2023-03-01T10:24:52;102445.22;;;12.17;34.50
13050;BME280;6591;51.446;5.404;2023-03-01T10:27:30;102438.84;;;12.22;34.57
13050;BME280;6591;51.446;5.404;2023-03-01T10:30:36;102438.75;;;12.25;34.79
13050;BME280;6591;51.446;5.404;2023-03-01T10:33:33;102434.41;;;12.23;33.89
13050;BME280;6591;51.446;5.404;2023-03-01T10:36:03;102430.63;;;12.31;34.30
13050;BME280;6591;51.446;5.404;2023-03-01T10:38:50;102422.44;;;12.39;34.18
13050;BME280;6591;51.446;5.404;2023-03-01T10:41:26;102429.16;;;12.52;34.13
13050;BME280;6591;51.446;5.404;2023-03-01T10:43:58;102437.81;;;12.60;33.55
13050;BME280;6591;51.446;5.404;2023-03-01T10:46:36;102437.59;;;12.68;34.17
13050;BME280;6591;51.446;5.404;2023-03-01T10:49:22;102433.91;;;12.72;33.87
13050;BME280;6591;51.446;5.404;2023-03-01T10:51:53;102427.47;;;12.81;33.36
13050;BME280;6591;51.446;5.404;2023-03-01T10:54:32;102429.97;;;12.87;33.65
13050;BME280;6591;51.446;5.404;2023-03-01T10:57:03;102428.66;;;13.00;33.48
13050;BME280;6591;51.446;5.404;2023-03-01T10:59:37;102427.56;;;13.07;33.15
13050;BME280;6591;51.446;5.404;2023-03-01T11:02:39;102420.34;;;13.12;33.28
13050;BME280;6591;51.446;5.404;2023-03-01T11:08:00;102424.44;;;13.24;33.35
13050;BME280;6591;51.446;5.404;2023-03-01T11:10:31;102423.94;;;13.39;32.92
13050;BME280;6591;51.446;5.404;2023-03-01T11:13:28;102426.34;;;13.46;32.83
13050;BME280;6591;51.446;5.404;2023-03-01T11:16:02;102416.94;;;13.63;33.34
13050;BME280;6591;51.446;5.404;2023-03-01T11:18:31;102420.75;;;13.82;33.39
13050;BME280;6591;51.446;5.404;2023-03-01T11:21:16;102410.28;;;14.02;32.98
13050;BME280;6591;51.446;5.404;2023-03-01T11:23:46;102414.97;;;14.20;32.88
13050;BME280;6591;51.446;5.404;2023-03-01T11:26:15;102421.72;;;14.30;31.89
13050;BME280;6591;51.446;5.404;2023-03-01T11:28:50;102414.59;;;14.31;32.01
13050;BME280;6591;51.446;5.404;2023-03-01T11:31:19;102416.31;;;14.33;31.90
13050;BME280;6591;51.446;5.404;2023-03-01T11:36:32;102412.41;;;14.44;31.77
13050;BME280;6591;51.446;5.404;2023-03-01T11:41:48;102405.50;;;14.61;31.98
13050;BME280;6591;51.446;5.404;2023-03-01T11:44:28;102401.81;;;14.65;31.20
13050;BME280;6591;51.446;5.404;2023-03-01T11:50:26;102385.81;;;14.64;31.16
13050;BME280;6591;51.446;5.404;2023-03-01T11:53:14;102394.63;;;14.66;31.65
13050;BME280;6591;51.446;5.404;2023-03-01T11:56:09;102389.75;;;14.77;31.54
13050;BME280;6591;51.446;5.404;2023-03-01T12:08:23;102379.19;;;14.74;30.75
13050;BME280;6591;51.446;5.404;2023-03-01T12:14:27;102363.88;;;14.77;30.61
13050;BME280;6591;51.446;5.404;2023-03-01T12:17:11;102364.66;;;14.81;31.06
13050;BME280;6591;51.446;5.404;2023-03-01T12:22:59;102355.41;;;14.66;29.77
13050;BME280;6591;51.446;5.404;2023-03-01T12:44:12;102348.31;;;14.42;30.35
13050;BME280;6591;51.446;5.404;2023-03-01T12:47:07;102330.25;;;14.49;30.10
13050;BME280;6591;51.446;5.404;2023-03-01T12:49:49;102334.31;;;14.59;30.23
13050;BME280;6591;51.446;5.404;2023-03-01T12:55:41;102321.09;;;14.77;30.47
13050;BME280;6591;51.446;5.404;2023-03-01T13:04:07;102309.97;;;14.88;29.27
13050;BME280;6591;51.446;5.404;2023-03-01T13:10:01;102307.00;;;14.74;29.58
13050;BME280;6591;51.446;5.404;2023-03-01T13:15:36;102299.03;;;14.72;29.40
13050;BME280;6591;51.446;5.404;2023-03-01T13:23:27;102278.75;;;14.67;28.97
13050;BME280;6591;51.446;5.404;2023-03-01T13:26:11;102272.53;;;14.66;29.12
13050;BME280;6591;51.446;5.404;2023-03-01T13:33:56;102256.28;;;14.71;29.31
13050;BME280;6591;51.446;5.404;2023-03-01T13:39:00;102255.06;;;14.79;28.85
13050;BME280;6591;51.446;5.404;2023-03-01T13:44:34;102240.16;;;14.74;29.08
13050;BME280;6591;51.446;5.404;2023-03-01T13:49:51;102231.81;;;14.81;29.27
13050;BME280;6591;51.446;5.404;2023-03-01T13:52:55;102232.75;;;14.80;28.42
13050;BME280;6591;51.446;5.404;2023-03-01T13:55:42;102231.00;;;14.79;29.10
13050;BME280;6591;51.446;5.404;2023-03-01T13:58:28;102224.09;;;14.74;28.32
13050;BME280;6591;51.446;5.404;2023-03-01T14:01:02;102217.25;;;14.67;28.17
13050;BME280;6591;51.446;5.404;2023-03-01T14:03:32;102215.69;;;14.61;28.04
13050;BME280;6591;51.446;5.404;2023-03-01T14:06:26;102217.69;;;14.56;28.88
13050;BME280;6591;51.446;5.404;2023-03-01T14:09:26;102220.59;;;14.50;28.47
13050;BME280;6591;51.446;5.404;2023-03-01T14:15:18;102204.13;;;14.61;28.65
13050;BME280;6591;51.446;5.404;2023-03-01T14:18:14;102214.53;;;14.68;28.53
13050;BME280;6591;51.446;5.404;2023-03-01T14:20:45;102202.66;;;14.75;28.91
13050;BME280;6591;51.446;5.404;2023-03-01T14:23:22;102194.34;;;14.81;29.19
13050;BME280;6591;51.446;5.404;2023-03-01T14:25:54;102200.34;;;14.88;28.90
13050;BME280;6591;51.446;5.404;2023-03-01T14:28:28;102189.44;;;14.93;28.79
13050;BME280;6591;51.446;5.404;2023-03-01T14:30:58;102196.34;;;14.98;28.92
13050;BME280;6591;51.446;5.404;2023-03-01T14:33:35;102201.69;;;14.98;28.78
13050;BME280;6591;51.446;5.404;2023-03-01T14:36:13;102195.34;;;15.01;29.07
13050;BME280;6591;51.446;5.404;2023-03-01T14:38:44;102193.47;;;15.03;28.52
13050;BME280;6591;51.446;5.404;2023-03-01T14:41:23;102189.13;;;15.00;28.14
13050;BME280;6591;51.446;5.404;2023-03-01T14:43:58;102190.00;;;15.01;28.47
13050;BME280;6591;51.446;5.404;2023-03-01T14:46:35;102180.03;;;15.04;28.33
13050;BME280;6591;51.446;5.404;2023-03-01T14:49:19;102168.47;;;15.04;28.01
13050;BME280;6591;51.446;5.404;2023-03-01T14:52:03;102177.22;;;15.07;28.44
13050;BME280;6591;51.446;5.404;2023-03-01T14:54:40;102176.03;;;15.14;28.50
13050;BME280;6591;51.446;5.404;2023-03-01T14:57:19;102167.91;;;15.17;28.36
13050;BME280;6591;51.446;5.404;2023-03-01T15:00:00;102169.41;;;15.23;28.59
13050;BME280;6591;51.446;5.404;2023-03-01T15:02:34;102168.22;;;15.30;28.38
13050;BME280;6591;51.446;5.404;2023-03-01T15:05:04;102158.19;;;15.35;28.27
13050;BME280;6591;51.446;5.404;2023-03-01T15:07:42;102149.00;;;15.41;27.93
13050;BME280;6591;51.446;5.404;2023-03-01T15:10:26;102149.66;;;15.46;28.29
13050;BME280;6591;51.446;5.404;2023-03-01T15:12:54;102148.50;;;15.53;28.63
13050;BME280;6591;51.446;5.404;2023-03-01T15:17:59;102147.09;;;15.64;28.47
13050;BME280;6591;51.446;5.404;2023-03-01T15:20:29;102151.41;;;15.67;28.03